createdAt,value
2023-04-26T00:00:48.407Z,28.40
2023-04-26T00:01:48.297Z,28.38
2023-04-26T00:02:48.349Z,28.37
2023-04-26T00:03:48.379Z,28.38
2023-04-26T00:04:48.394Z,28.40
2023-04-26T00:05:48.357Z,28.38
2023-04-26T00:06:48.264Z,28.41
2023-04-26T00:07:48.278Z,28.41
2023-04-26T00:08:48.258Z,28.41
2023-04-26T00:09:48.315Z,28.43
2023-04-26T00:10:48.337Z,28.41
2023-04-26T00:11:48.281Z,28.40
2023-04-26T00:12:48.320Z,28.43
2023-04-26T00:13:48.328Z,28.44
2023-04-26T00:14:48.575Z,28.40
2023-04-26T00:15:48.211Z,28.40
2023-04-26T00:16:48.316Z,28.43
2023-04-26T00:17:48.318Z,28.37
2023-04-26T00:18:48.254Z,28.41
2023-04-26T00:19:48.262Z,28.41
2023-04-26T00:20:48.322Z,28.38
2023-04-26T00:21:48.300Z,28.37
2023-04-26T00:22:48.351Z,28.41
2023-04-26T00:23:48.351Z,28.40
2023-04-26T00:24:48.409Z,28.40
2023-04-26T00:25:48.425Z,28.41
2023-04-26T00:26:48.451Z,28.38
2023-04-26T00:27:48.465Z,28.44
2023-04-26T00:28:48.481Z,28.38
2023-04-26T00:29:48.523Z,28.37
2023-04-26T00:30:48.541Z,28.37
2023-04-26T00:31:48.634Z,28.34
2023-04-26T00:32:48.675Z,28.36
2023-04-26T00:33:48.636Z,28.36
2023-04-26T00:34:48.627Z,28.34
2023-04-26T00:35:48.662Z,28.34
2023-04-26T00:36:48.680Z,28.31
2023-04-26T00:37:48.726Z,28.37
2023-04-26T00:38:48.785Z,28.36
2023-04-26T00:39:48.755Z,28.34
2023-04-26T00:40:48.789Z,28.36
2023-04-26T00:41:48.820Z,28.40
2023-04-26T00:42:48.919Z,28.36
2023-04-26T00:43:48.921Z,28.37
2023-04-26T00:44:48.923Z,28.36
2023-04-26T00:45:48.984Z,28.36
2023-04-26T00:46:48.959Z,28.37
2023-04-26T00:47:49.015Z,28.36
2023-04-26T00:48:49.002Z,28.34
2023-04-26T00:49:49.035Z,28.31
2023-04-26T00:50:49.068Z,28.36
2023-04-26T00:51:49.084Z,28.37
2023-04-26T00:52:49.123Z,28.33
2023-04-26T00:53:49.148Z,28.37
2023-04-26T00:54:49.170Z,28.37
2023-04-26T00:55:49.256Z,28.38
2023-04-26T00:56:49.230Z,28.38
2023-04-26T00:57:49.251Z,28.30
2023-04-26T00:58:49.650Z,28.36
2023-04-26T00:59:49.323Z,28.37
2023-04-26T01:32:23.441Z,28.20
2023-04-26T01:33:23.249Z,28.23
2023-04-26T01:34:23.222Z,28.26
2023-04-26T01:35:23.444Z,28.30
2023-04-26T01:36:23.199Z,28.28
2023-04-26T01:37:23.221Z,28.28
2023-04-26T01:38:23.200Z,28.27
2023-04-26T01:39:23.197Z,28.24
2023-04-26T01:40:23.436Z,28.27
2023-04-26T01:41:23.183Z,28.30
2023-04-26T01:42:23.175Z,28.28
2023-04-26T01:43:23.169Z,28.31
2023-04-26T01:44:23.172Z,28.28
2023-04-26T01:45:23.471Z,28.28
2023-04-26T01:46:23.180Z,28.27
2023-04-26T01:47:23.187Z,28.27
2023-04-26T01:48:23.204Z,28.27
2023-04-26T01:49:23.188Z,28.28
2023-04-26T01:50:23.454Z,28.30
2023-04-26T01:51:23.193Z,28.30
2023-04-26T01:52:23.209Z,28.30
2023-04-26T01:53:23.272Z,28.27
2023-04-26T01:54:23.204Z,28.26
2023-04-26T01:55:23.467Z,28.26
2023-04-26T01:56:23.241Z,28.26
2023-04-26T01:57:23.280Z,28.27
2023-04-26T01:58:23.299Z,28.33
2023-04-26T01:59:23.366Z,28.26
2023-04-26T02:00:23.447Z,28.26
2023-04-26T02:01:23.347Z,28.26
2023-04-26T02:02:23.358Z,28.28
2023-04-26T02:03:23.472Z,28.31
2023-04-26T02:04:23.390Z,28.27
2023-04-26T02:05:23.485Z,28.27
2023-04-26T02:06:23.415Z,28.30
2023-04-26T02:07:23.411Z,28.26
2023-04-26T02:08:23.418Z,28.30
2023-04-26T02:09:23.445Z,28.27
2023-04-26T02:10:23.448Z,28.27
2023-04-26T02:11:23.458Z,28.27
2023-04-26T02:12:23.471Z,28.26
2023-04-26T02:13:23.521Z,28.30
2023-04-26T02:14:23.507Z,28.28
2023-04-26T02:15:23.550Z,28.26
2023-04-26T02:16:23.581Z,28.27
2023-04-26T02:17:23.588Z,28.23
2023-04-26T02:18:23.607Z,28.27
2023-04-26T02:19:23.599Z,28.26
2023-04-26T02:20:23.643Z,28.26
2023-04-26T02:21:23.658Z,28.27
2023-04-26T02:22:23.679Z,28.23
2023-04-26T02:23:23.699Z,28.24
2023-04-26T02:24:23.725Z,28.26
2023-04-26T02:25:23.734Z,28.26
2023-04-26T02:26:23.768Z,28.21
2023-04-26T02:27:23.773Z,28.23
2023-04-26T02:28:23.784Z,28.21
2023-04-26T02:29:39.989Z,28.24
2023-04-26T02:30:24.849Z,28.24
2023-04-26T02:31:23.810Z,28.23
2023-04-26T02:32:23.801Z,28.27
2023-04-26T02:33:23.758Z,28.21
2023-04-26T02:34:23.756Z,28.23
2023-04-26T02:35:23.749Z,28.23
2023-04-26T02:36:23.751Z,28.20
2023-04-26T02:37:23.747Z,28.21
2023-04-26T02:38:23.740Z,28.24
2023-04-26T02:39:23.734Z,28.19
2023-04-26T02:40:23.722Z,28.20
2023-04-26T02:41:23.704Z,28.23
2023-04-26T02:42:23.714Z,28.19
2023-04-26T02:43:23.674Z,28.23
2023-04-26T02:44:23.683Z,28.26
2023-04-26T02:45:23.682Z,28.20
2023-04-26T02:46:23.695Z,28.19
2023-04-26T02:47:23.706Z,28.20
2023-04-26T02:48:23.657Z,28.20
2023-04-26T02:49:23.635Z,28.24
2023-04-26T02:50:23.657Z,28.24
2023-04-26T02:51:23.681Z,28.20
2023-04-26T02:52:23.694Z,28.23
2023-04-26T02:53:23.744Z,28.20
2023-04-26T02:54:23.722Z,28.20
2023-04-26T02:55:23.738Z,28.23
2023-04-26T02:56:23.752Z,28.19
2023-04-26T02:57:23.778Z,28.20
2023-04-26T02:58:23.798Z,28.21
2023-04-26T02:59:23.824Z,28.19
2023-04-26T03:00:23.849Z,28.21
2023-04-26T03:01:23.893Z,28.21
2023-04-26T03:02:24.006Z,28.19
2023-04-26T03:03:23.941Z,28.21
2023-04-26T03:04:23.947Z,28.19
2023-04-26T03:05:23.938Z,28.20
2023-04-26T03:06:23.954Z,28.20
2023-04-26T03:07:23.947Z,28.19
2023-04-26T03:08:24.030Z,28.11
2023-04-26T03:09:24.124Z,28.16
2023-04-26T03:10:24.029Z,28.20
2023-04-26T03:11:24.084Z,28.19
2023-04-26T03:12:24.098Z,28.17
2023-04-26T03:13:24.127Z,28.16
2023-04-26T03:14:24.150Z,28.17
2023-04-26T03:15:24.195Z,28.20
2023-04-26T03:16:24.262Z,28.16
2023-04-26T03:17:24.269Z,28.17
2023-04-26T03:18:24.245Z,28.17
2023-04-26T03:19:24.305Z,28.14
2023-04-26T03:20:24.303Z,28.16
2023-04-26T03:21:24.354Z,28.16
2023-04-26T03:22:24.344Z,28.17
2023-04-26T03:23:24.442Z,28.20
2023-04-26T03:24:24.403Z,28.16
2023-04-26T03:25:24.447Z,28.16
2023-04-26T03:26:24.465Z,28.20
2023-04-26T03:27:24.505Z,28.16
2023-04-26T03:28:24.511Z,28.19
2023-04-26T03:29:24.531Z,28.19
2023-04-26T03:30:24.591Z,28.14
2023-04-26T03:31:24.693Z,28.16
2023-04-26T03:32:25.553Z,28.14
2023-04-26T03:33:24.597Z,28.14
2023-04-26T03:34:24.575Z,28.14
2023-04-26T03:35:24.594Z,28.16
2023-04-26T03:36:24.589Z,28.16
2023-04-26T03:37:24.560Z,28.17
2023-04-26T03:38:24.558Z,28.13
2023-04-26T03:39:24.574Z,28.11
2023-04-26T03:40:24.651Z,28.17
2023-04-26T03:41:24.527Z,28.13
2023-04-26T03:42:24.507Z,28.14
2023-04-26T03:43:24.539Z,28.13
2023-04-26T03:44:24.501Z,28.14
2023-04-26T03:45:24.521Z,28.16
2023-04-26T03:46:24.584Z,28.14
2023-04-26T03:47:24.559Z,28.10
2023-04-26T03:48:24.569Z,28.14
2023-04-26T03:49:24.601Z,28.16
2023-04-26T03:50:24.610Z,28.16
2023-04-26T03:51:24.691Z,28.14
2023-04-26T03:52:24.660Z,28.20
2023-04-26T03:53:24.684Z,28.16
2023-04-26T03:54:24.716Z,28.17
2023-04-26T03:55:24.746Z,28.17
2023-04-26T03:56:24.764Z,28.14
2023-04-26T03:57:24.797Z,28.14
2023-04-26T03:58:24.844Z,28.16
2023-04-26T03:59:24.877Z,28.13
2023-04-26T04:00:24.939Z,28.14
2023-04-26T04:01:24.907Z,28.13
2023-04-26T04:02:25.030Z,28.11
2023-04-26T04:03:25.127Z,28.10
2023-04-26T04:04:25.211Z,28.10
2023-04-26T04:05:25.093Z,28.11
2023-04-26T04:06:25.061Z,28.09
2023-04-26T04:07:25.069Z,28.10
2023-04-26T04:08:25.092Z,28.13
2023-04-26T04:09:25.136Z,28.11
2023-04-26T04:10:25.131Z,28.16
2023-04-26T04:11:25.192Z,28.13
2023-04-26T04:12:25.175Z,28.13
2023-04-26T04:13:25.229Z,28.10
2023-04-26T04:14:25.293Z,28.13
2023-04-26T04:15:25.279Z,28.11
2023-04-26T04:16:25.386Z,28.13
2023-04-26T04:17:25.387Z,28.11
2023-04-26T04:18:25.360Z,28.10
2023-04-26T04:19:25.388Z,28.13
2023-04-26T04:20:25.449Z,28.10
2023-04-26T04:21:25.449Z,28.11
2023-04-26T04:22:25.508Z,28.09
2023-04-26T04:23:25.530Z,28.10
2023-04-26T04:24:25.583Z,28.09
2023-04-26T04:25:25.592Z,28.09
2023-04-26T04:26:25.619Z,28.13
2023-04-26T04:27:25.627Z,28.13
2023-04-26T04:28:25.669Z,28.14
2023-04-26T04:29:25.698Z,28.16
2023-04-26T04:30:25.699Z,28.13
2023-04-26T04:31:25.808Z,28.11
2023-04-26T04:32:25.753Z,28.11
2023-04-26T04:33:25.772Z,28.11
2023-04-26T04:34:25.788Z,28.09
2023-04-26T04:35:25.836Z,28.09
2023-04-26T04:36:25.849Z,28.11
2023-04-26T04:37:25.887Z,28.09
2023-04-26T04:38:25.926Z,28.10
2023-04-26T04:39:25.943Z,28.13
2023-04-26T04:40:26.002Z,28.07
2023-04-26T04:41:26.031Z,28.11
2023-04-26T04:42:26.112Z,28.09
2023-04-26T04:43:26.064Z,28.07
2023-04-26T04:44:26.110Z,28.10
2023-04-26T04:45:26.143Z,28.10
2023-04-26T04:46:26.229Z,28.09
2023-04-26T04:47:26.259Z,28.09
2023-04-26T04:48:26.238Z,28.06
2023-04-26T04:49:26.272Z,28.09
2023-04-26T04:50:26.312Z,28.09
2023-04-26T04:51:26.365Z,28.11
2023-04-26T04:52:26.386Z,28.09
2023-04-26T04:53:26.413Z,28.10
2023-04-26T04:54:26.435Z,28.13
2023-04-26T04:55:26.524Z,28.11
2023-04-26T04:56:26.491Z,28.07
2023-04-26T04:57:26.547Z,28.10
2023-04-26T04:58:26.584Z,28.10
2023-04-26T04:59:27.895Z,28.09
2023-04-26T05:00:27.233Z,28.14
2023-04-26T05:01:26.693Z,28.11
2023-04-26T05:02:27.645Z,28.11
2023-04-26T05:03:26.830Z,28.14
2023-04-26T05:04:26.960Z,28.14
2023-04-26T05:05:26.809Z,28.13
2023-04-26T05:06:26.848Z,28.13
2023-04-26T05:07:28.964Z,28.16
2023-04-26T05:08:26.947Z,28.09
2023-04-26T05:09:27.023Z,28.10
2023-04-26T05:10:26.970Z,28.14
2023-04-26T05:11:26.995Z,28.13
2023-04-26T05:12:27.071Z,28.13
2023-04-26T05:13:27.064Z,28.13
2023-04-26T05:14:27.118Z,28.06
2023-04-26T05:15:27.216Z,28.09
2023-04-26T05:16:27.266Z,28.10
2023-04-26T05:17:27.298Z,28.09
2023-04-26T05:18:27.285Z,28.09
2023-04-26T05:19:27.327Z,28.03
2023-04-26T05:20:27.361Z,28.09
2023-04-26T05:21:27.414Z,28.06
2023-04-26T05:22:27.460Z,28.03
2023-04-26T05:23:28.029Z,28.06
2023-04-26T05:24:28.540Z,28.09
2023-04-26T05:25:28.106Z,28.06
2023-04-26T05:26:27.667Z,28.01
2023-04-26T05:27:27.783Z,27.96
2023-04-26T05:28:27.827Z,27.96
2023-04-26T05:29:27.830Z,27.86
2023-04-26T05:30:27.885Z,27.93
2023-04-26T05:31:27.949Z,27.97
2023-04-26T05:32:28.160Z,27.83
2023-04-26T05:33:28.033Z,27.89
2023-04-26T05:34:28.099Z,27.90
2023-04-26T05:35:28.091Z,27.88
2023-04-26T05:36:29.939Z,27.85
2023-04-26T05:37:28.210Z,27.93
2023-04-26T05:38:28.480Z,27.99
2023-04-26T05:39:28.313Z,27.85
2023-04-26T05:40:28.339Z,27.96
2023-04-26T05:41:28.357Z,28.00
2023-04-26T05:42:28.697Z,27.93
2023-04-26T05:43:28.452Z,27.93
2023-04-26T05:44:28.497Z,27.97
2023-04-26T05:45:28.776Z,28.00
2023-04-26T05:46:28.598Z,27.85
2023-04-26T05:47:28.614Z,28.00
2023-04-26T05:48:28.599Z,28.00
2023-04-26T05:49:28.653Z,28.04
2023-04-26T05:50:28.714Z,28.11
2023-04-26T05:51:28.711Z,28.14
2023-04-26T05:52:28.725Z,28.20
2023-04-26T05:53:28.743Z,28.24
2023-04-26T05:54:28.766Z,28.27
2023-04-26T05:55:28.799Z,28.33
2023-04-26T05:56:28.781Z,28.34
2023-04-26T05:57:28.869Z,28.36
2023-04-26T05:58:28.821Z,28.41
2023-04-26T05:59:28.831Z,28.44
2023-04-26T06:00:28.852Z,28.44
2023-04-26T06:01:28.826Z,28.47
2023-04-26T06:02:28.932Z,28.50
2023-04-26T06:03:29.172Z,28.48
2023-04-26T06:04:29.070Z,28.51
2023-04-26T06:05:29.255Z,28.54
2023-04-26T06:06:28.870Z,28.58
2023-04-26T06:07:29.014Z,28.54
2023-04-26T06:08:29.887Z,28.58
2023-04-26T06:09:29.111Z,28.59
2023-04-26T06:10:29.576Z,28.62
2023-04-26T06:11:29.048Z,28.64
2023-04-26T06:12:30.004Z,28.65
2023-04-26T06:13:28.888Z,28.64
2023-04-26T06:14:30.707Z,28.68
2023-04-26T06:15:29.293Z,28.69
2023-04-26T06:16:29.958Z,28.72
2023-04-26T06:17:29.001Z,28.71
2023-04-26T06:18:28.967Z,28.74
2023-04-26T06:19:29.239Z,28.74
2023-04-26T06:20:29.331Z,28.76
2023-04-26T06:21:28.993Z,28.79
2023-04-26T06:22:29.854Z,28.74
2023-04-26T06:23:30.042Z,28.76
2023-04-26T06:24:29.072Z,28.81
2023-04-26T06:25:29.106Z,28.83
2023-04-26T06:26:29.204Z,28.89
2023-04-26T06:27:29.202Z,28.85
2023-04-26T06:28:29.271Z,28.86
2023-04-26T06:29:29.340Z,28.88
2023-04-26T06:30:29.575Z,28.86
2023-04-26T06:31:29.487Z,28.89
2023-04-26T06:32:29.522Z,28.96
2023-04-26T06:33:30.628Z,28.92
2023-04-26T06:34:29.746Z,28.96
2023-04-26T06:35:30.098Z,28.91
2023-04-26T06:36:29.825Z,28.95
2023-04-26T06:37:29.884Z,28.95
2023-04-26T06:38:29.876Z,28.82
2023-04-26T06:39:29.946Z,28.88
2023-04-26T06:40:30.101Z,28.92
2023-04-26T06:41:30.058Z,28.94
2023-04-26T06:42:30.107Z,28.89
2023-04-26T06:43:30.318Z,28.94
2023-04-26T06:44:30.384Z,28.89
2023-04-26T06:45:30.582Z,28.91
2023-04-26T06:46:30.404Z,28.92
2023-04-26T06:47:30.428Z,28.91
2023-04-26T06:48:30.465Z,28.89
2023-04-26T06:49:30.514Z,28.91
2023-04-26T06:50:30.586Z,28.92
2023-04-26T06:51:30.637Z,28.94
2023-04-26T06:52:30.858Z,28.96
2023-04-26T06:53:30.763Z,28.98
2023-04-26T06:54:30.825Z,28.98
2023-04-26T06:55:31.081Z,28.98
2023-04-26T06:56:30.982Z,28.96
2023-04-26T06:57:31.620Z,28.99
2023-04-26T06:58:31.088Z,29.02
2023-04-26T06:59:31.125Z,28.99
2023-04-26T07:00:31.223Z,28.99
2023-04-26T07:01:31.359Z,28.92
2023-04-26T07:02:31.483Z,28.96
2023-04-26T07:03:31.501Z,28.95
2023-04-26T07:04:31.552Z,28.94
2023-04-26T07:05:31.563Z,28.91
2023-04-26T07:06:31.535Z,28.94
2023-04-26T07:07:31.598Z,28.95
2023-04-26T07:08:31.689Z,28.95
2023-04-26T07:09:31.741Z,28.98
2023-04-26T07:10:32.674Z,28.98
2023-04-26T07:11:31.855Z,28.99
2023-04-26T07:12:31.931Z,28.99
2023-04-26T07:13:31.912Z,28.99
2023-04-26T07:14:31.977Z,29.02
2023-04-26T07:15:32.130Z,29.03
2023-04-26T07:16:32.147Z,29.03
2023-04-26T07:17:33.209Z,29.03
2023-04-26T07:18:32.185Z,29.02
2023-04-26T07:19:33.729Z,28.94
2023-04-26T07:20:32.646Z,28.92
2023-04-26T07:21:32.451Z,28.96
2023-04-26T07:22:32.497Z,29.01
2023-04-26T07:23:33.390Z,28.99
2023-04-26T07:24:32.573Z,29.03
2023-04-26T07:25:33.108Z,29.05
2023-04-26T07:26:32.707Z,29.07
2023-04-26T07:27:34.385Z,29.03
2023-04-26T07:28:33.318Z,29.10
2023-04-26T07:29:32.707Z,29.15
2023-04-26T07:30:33.095Z,29.07
2023-04-26T07:31:32.719Z,29.10
2023-04-26T07:32:32.727Z,29.06
2023-04-26T07:33:32.840Z,29.13
2023-04-26T07:34:32.771Z,29.16
2023-04-26T07:35:33.163Z,29.17
2023-04-26T07:36:32.699Z,29.19
2023-04-26T07:37:32.849Z,29.20
2023-04-26T07:38:32.848Z,29.23
2023-04-26T07:39:33.687Z,29.19
2023-04-26T07:40:33.140Z,29.19
2023-04-26T07:41:32.687Z,29.17
2023-04-26T07:42:32.853Z,29.20
2023-04-26T07:43:32.768Z,29.19
2023-04-26T07:44:32.841Z,29.22
2023-04-26T07:45:33.048Z,29.20
2023-04-26T07:46:32.975Z,29.19
2023-04-26T07:47:33.164Z,29.20
2023-04-26T07:48:33.069Z,29.19
2023-04-26T07:49:33.104Z,29.06
2023-04-26T07:50:33.657Z,29.10
2023-04-26T07:51:33.222Z,29.15
2023-04-26T07:52:33.360Z,29.17
2023-04-26T07:53:36.199Z,29.16
2023-04-26T07:54:33.445Z,29.24
2023-04-26T07:55:33.651Z,29.27
2023-04-26T07:56:33.408Z,29.22
2023-04-26T07:57:33.323Z,29.32
2023-04-26T07:58:33.373Z,29.27
2023-04-26T07:59:33.307Z,29.33
2023-04-26T08:00:33.623Z,29.43
2023-04-26T08:01:33.294Z,29.43
2023-04-26T08:02:44.479Z,29.40
2023-04-26T08:03:34.459Z,29.33
2023-04-26T08:04:33.533Z,29.38
2023-04-26T08:05:34.949Z,29.40
2023-04-26T08:06:33.289Z,29.42
2023-04-26T08:07:33.236Z,29.38
2023-04-26T08:08:33.513Z,29.37
2023-04-26T08:09:34.305Z,29.42
2023-04-26T08:10:33.536Z,29.37
2023-04-26T08:11:33.298Z,29.38
2023-04-26T08:12:33.202Z,29.38
2023-04-26T08:13:33.234Z,29.36
2023-04-26T08:14:34.153Z,29.37
2023-04-26T08:15:33.696Z,29.36
2023-04-26T08:16:33.443Z,29.36
2023-04-26T08:17:33.441Z,29.38
2023-04-26T08:18:33.553Z,29.37
2023-04-26T08:19:33.641Z,29.38
2023-04-26T08:20:33.617Z,29.38
2023-04-26T08:21:33.649Z,29.38
2023-04-26T08:22:33.631Z,29.34
2023-04-26T08:23:33.725Z,29.40
2023-04-26T08:24:35.775Z,29.36
2023-04-26T08:25:33.797Z,29.40
2023-04-26T08:26:33.793Z,29.37
2023-04-26T08:27:33.825Z,29.37
2023-04-26T08:28:33.957Z,29.34
2023-04-26T08:29:33.920Z,29.37
2023-04-26T08:30:34.020Z,29.34
2023-04-26T08:31:34.105Z,29.34
2023-04-26T08:32:34.008Z,29.32
2023-04-26T08:33:33.967Z,29.34
2023-04-26T08:34:33.978Z,29.36
2023-04-26T08:35:35.878Z,29.36
2023-04-26T08:36:33.925Z,29.36
2023-04-26T08:37:35.607Z,29.36
2023-04-26T08:38:33.913Z,29.36
2023-04-26T08:39:33.907Z,29.37
2023-04-26T08:40:34.148Z,29.36
2023-04-26T08:41:33.872Z,29.38
2023-04-26T08:42:34.466Z,29.37
2023-04-26T08:43:33.897Z,29.42
2023-04-26T08:44:33.893Z,29.38
2023-04-26T08:45:33.960Z,29.40
2023-04-26T08:46:33.998Z,29.40
2023-04-26T08:47:34.027Z,29.38
2023-04-26T08:48:34.095Z,29.40
2023-04-26T08:49:34.120Z,29.40
2023-04-26T08:50:34.179Z,29.40
2023-04-26T08:51:34.162Z,29.37
2023-04-26T08:52:34.233Z,29.42
2023-04-26T08:53:34.205Z,29.42
2023-04-26T08:54:34.252Z,29.29
2023-04-26T08:55:34.264Z,29.37
2023-04-26T08:56:34.356Z,29.36
2023-04-26T08:57:34.348Z,29.43
2023-04-26T08:58:34.409Z,29.43
2023-04-26T08:59:34.453Z,29.49
2023-04-26T09:00:34.596Z,29.44
2023-04-26T09:01:34.882Z,29.49
2023-04-26T09:02:34.749Z,29.50
2023-04-26T09:03:34.856Z,29.49
2023-04-26T09:04:34.977Z,29.57
2023-04-26T09:05:34.728Z,29.61
2023-04-26T09:06:34.797Z,29.64
2023-04-26T09:07:34.989Z,29.64
2023-04-26T09:08:50.177Z,29.68
2023-04-26T09:09:34.898Z,29.71
2023-04-26T09:10:34.945Z,29.75
2023-04-26T09:11:34.888Z,29.78
2023-04-26T09:12:35.927Z,29.80
2023-04-26T09:13:38.105Z,29.82
2023-04-26T09:14:38.134Z,29.84
2023-04-26T09:15:35.709Z,29.84
2023-04-26T09:16:36.036Z,29.91
2023-04-26T09:17:34.748Z,29.92
2023-04-26T09:18:34.739Z,29.93
2023-04-26T09:19:35.014Z,29.95
2023-04-26T09:22:14.534Z,29.95
2023-04-26T09:23:14.588Z,29.97
2023-04-26T09:24:14.373Z,29.98
2023-04-26T09:25:14.312Z,30.01
2023-04-26T09:26:14.762Z,30.04
2023-04-26T09:27:14.353Z,30.04
2023-04-26T09:28:14.339Z,30.04
2023-04-26T09:29:14.334Z,30.04
2023-04-26T09:30:14.440Z,29.99
2023-04-26T09:31:15.600Z,30.02
2023-04-26T09:32:14.479Z,30.01
2023-04-26T09:33:14.336Z,29.98
2023-04-26T09:34:14.280Z,30.01
2023-04-26T09:35:14.533Z,30.01
2023-04-26T09:36:16.215Z,30.02
2023-04-26T09:37:14.496Z,29.99
2023-04-26T09:38:14.684Z,29.98
2023-04-26T09:39:14.336Z,29.97
2023-04-26T09:40:14.244Z,29.98
2023-04-26T09:41:14.383Z,29.95
2023-04-26T09:42:14.309Z,29.97
2023-04-26T09:43:14.341Z,29.95
2023-04-26T09:44:14.245Z,29.95
2023-04-26T09:45:14.232Z,29.92
2023-04-26T09:46:14.188Z,29.95
2023-04-26T09:47:14.208Z,29.93
2023-04-26T09:48:14.250Z,29.93
2023-04-26T09:49:14.395Z,29.93
2023-04-26T09:50:14.223Z,29.93
2023-04-26T09:51:14.174Z,29.93
2023-04-26T09:52:14.207Z,29.92
2023-04-26T09:53:14.552Z,29.91
2023-04-26T09:54:14.220Z,29.91
2023-04-26T09:55:25.333Z,29.93
2023-04-26T09:56:15.164Z,29.91
2023-04-26T09:57:14.097Z,29.92
2023-04-26T09:58:14.213Z,29.91
2023-04-26T09:59:14.172Z,29.91
2023-04-26T10:00:14.215Z,29.91
2023-04-26T10:01:14.156Z,29.89
2023-04-26T10:02:14.170Z,29.88
2023-04-26T10:03:14.178Z,29.92
2023-04-26T10:04:14.252Z,29.92
2023-04-26T10:05:14.078Z,29.91
2023-04-26T10:06:14.148Z,29.91
2023-04-26T10:07:14.160Z,29.91
2023-04-26T10:08:14.094Z,29.93
2023-04-26T10:09:14.029Z,29.92
2023-04-26T10:10:14.344Z,29.91
2023-04-26T10:11:15.726Z,29.92
2023-04-26T10:12:14.982Z,29.93
2023-04-26T10:13:13.979Z,29.91
2023-04-26T10:14:13.963Z,29.91
2023-04-26T10:15:14.043Z,29.92
2023-04-26T10:16:17.459Z,29.91
2023-04-26T10:17:14.073Z,29.91
2023-04-26T10:18:15.006Z,29.92
2023-04-26T10:19:14.752Z,29.89
2023-04-26T10:20:13.931Z,29.89
2023-04-26T10:21:15.468Z,29.89
2023-04-26T10:22:13.907Z,29.93
2023-04-26T10:23:16.007Z,29.88
2023-04-26T10:24:13.888Z,29.89
2023-04-26T10:25:13.933Z,29.89
2023-04-26T10:26:13.932Z,29.91
2023-04-26T10:27:13.909Z,29.89
2023-04-26T10:28:13.870Z,29.91
2023-04-26T10:29:13.833Z,29.91
2023-04-26T10:30:13.920Z,29.93
2023-04-26T10:31:13.979Z,29.93
2023-04-26T10:32:13.892Z,29.91
2023-04-26T10:33:14.490Z,29.91
2023-04-26T10:34:13.820Z,29.88
2023-04-26T10:35:13.892Z,29.91
2023-04-26T10:36:13.843Z,29.92
2023-04-26T10:37:13.811Z,29.92
2023-04-26T10:38:13.783Z,29.89
2023-04-26T10:39:13.775Z,29.91
2023-04-26T10:40:13.788Z,29.89
2023-04-26T10:41:14.096Z,29.92
2023-04-26T10:42:13.800Z,29.92
2023-04-26T10:43:13.789Z,29.91
2023-04-26T10:44:13.775Z,29.92
2023-04-26T10:45:13.861Z,29.92
2023-04-26T10:46:15.022Z,29.91
2023-04-26T10:47:13.849Z,29.93
2023-04-26T10:48:13.797Z,29.93
2023-04-26T10:49:13.817Z,29.91
2023-04-26T10:50:13.712Z,29.89
2023-04-26T10:51:13.729Z,29.91
2023-04-26T10:52:13.692Z,29.92
2023-04-26T10:53:13.718Z,29.93
2023-04-26T10:54:13.724Z,29.91
2023-04-26T10:55:13.726Z,29.92
2023-04-26T10:56:13.690Z,29.87
2023-04-26T10:57:13.678Z,29.89
2023-04-26T10:58:13.660Z,29.89
2023-04-26T10:59:33.482Z,29.91
2023-04-26T11:00:14.813Z,29.91
2023-04-26T11:01:13.735Z,29.93
2023-04-26T11:02:13.686Z,29.88
2023-04-26T11:03:13.724Z,29.89
2023-04-26T11:04:13.704Z,29.91
2023-04-26T11:05:13.720Z,29.92
2023-04-26T11:06:13.638Z,29.93
2023-04-26T11:07:13.728Z,29.93
2023-04-26T11:08:13.729Z,29.91
2023-04-26T11:09:13.623Z,29.91
2023-04-26T11:10:13.623Z,29.95
2023-04-26T11:11:13.699Z,29.93
2023-04-26T11:12:13.663Z,29.95
2023-04-26T11:13:13.919Z,29.97
2023-04-26T11:14:14.703Z,29.93
2023-04-26T11:15:13.771Z,29.93
2023-04-26T11:16:14.167Z,29.97
2023-04-26T11:17:13.578Z,29.95
2023-04-26T11:18:13.661Z,29.93
2023-04-26T11:19:13.633Z,29.92
2023-04-26T11:20:13.654Z,29.98
2023-04-26T11:21:13.764Z,29.93
2023-04-26T11:22:13.524Z,29.98
2023-04-26T11:23:14.829Z,29.98
2023-04-26T11:24:13.543Z,29.99
2023-04-26T11:25:14.619Z,29.98
2023-04-26T11:26:13.493Z,29.99
2023-04-26T11:27:13.595Z,29.97
2023-04-26T11:28:14.492Z,29.97
2023-04-26T11:29:13.452Z,29.99
2023-04-26T11:30:13.604Z,29.99
2023-04-26T11:31:13.504Z,29.98
2023-04-26T11:32:14.909Z,29.99
2023-04-26T11:33:13.629Z,29.98
2023-04-26T11:34:13.476Z,29.98
2023-04-26T11:35:13.405Z,29.98
2023-04-26T11:36:13.830Z,29.93
2023-04-26T11:37:13.393Z,29.99
2023-04-26T11:38:13.510Z,29.97
2023-04-26T11:39:14.213Z,29.99
2023-04-26T11:40:13.578Z,29.99
2023-04-26T11:41:13.616Z,29.98
2023-04-26T11:42:14.390Z,29.97
2023-04-26T11:43:13.395Z,29.98
2023-04-26T11:44:13.642Z,29.98
2023-04-26T11:45:13.345Z,29.98
2023-04-26T11:46:13.860Z,29.97
2023-04-26T11:47:13.498Z,30.02
2023-04-26T11:48:13.697Z,30.02
2023-04-26T11:49:13.415Z,30.01
2023-04-26T11:50:13.589Z,29.99
2023-04-26T11:51:13.455Z,30.02
2023-04-26T11:52:13.600Z,30.01
2023-04-26T11:53:13.388Z,29.97
2023-04-26T11:54:13.403Z,29.98
2023-04-26T11:55:13.413Z,29.99
2023-04-26T11:56:13.406Z,29.98
2023-04-26T11:57:15.286Z,29.98
2023-04-26T11:58:13.382Z,29.98
2023-04-26T11:59:13.492Z,29.93
2023-04-26T12:00:13.736Z,29.98
2023-04-26T12:01:13.594Z,30.01
2023-04-26T12:02:13.587Z,29.95
2023-04-26T12:03:13.645Z,29.93
2023-04-26T12:04:13.539Z,29.89
2023-04-26T12:05:13.433Z,29.91
2023-04-26T12:06:13.487Z,29.88
2023-04-26T12:07:13.336Z,29.72
2023-04-26T12:08:13.319Z,29.85
2023-04-26T12:09:13.381Z,29.85
2023-04-26T12:10:13.299Z,29.87
2023-04-26T12:11:13.356Z,29.75
2023-04-26T12:12:13.502Z,29.74
2023-04-26T12:13:14.479Z,29.81
2023-04-26T12:14:13.387Z,29.81
2023-04-26T12:15:15.535Z,29.82
2023-04-26T12:16:24.977Z,29.84
2023-04-26T12:17:14.285Z,29.81
2023-04-26T12:18:13.505Z,29.84
2023-04-26T12:19:13.285Z,29.84
2023-04-26T12:20:13.254Z,29.85
2023-04-26T12:21:13.470Z,29.85
2023-04-26T12:22:13.299Z,29.88
2023-04-26T12:23:13.285Z,29.85
2023-04-26T12:24:13.304Z,29.88
2023-04-26T12:25:13.255Z,29.89
2023-04-26T12:26:14.398Z,29.91
2023-04-26T12:27:13.275Z,29.85
2023-04-26T12:28:14.573Z,29.91
2023-04-26T12:29:13.225Z,29.88
2023-04-26T12:30:13.227Z,29.88
2023-04-26T12:31:13.438Z,29.92
2023-04-26T12:32:13.154Z,29.88
2023-04-26T12:33:17.717Z,29.89
2023-04-26T12:34:13.151Z,29.91
2023-04-26T12:35:13.237Z,29.91
2023-04-26T12:36:13.174Z,29.92
2023-04-26T12:37:13.446Z,29.92
2023-04-26T12:38:13.389Z,29.89
2023-04-26T12:39:13.137Z,29.91
2023-04-26T12:40:13.104Z,29.92
2023-04-26T12:41:13.170Z,29.91
2023-04-26T12:42:13.264Z,29.89
2023-04-26T12:43:13.475Z,29.92
2023-04-26T12:44:13.072Z,29.91
2023-04-26T12:45:13.219Z,29.91
2023-04-26T12:46:13.195Z,29.91
2023-04-26T12:47:13.113Z,29.91
2023-04-26T12:48:13.400Z,29.89
2023-04-26T12:49:13.078Z,29.91
2023-04-26T12:50:13.159Z,29.93
2023-04-26T12:51:13.550Z,29.91
2023-04-26T12:52:14.045Z,29.89
2023-04-26T12:53:13.090Z,29.91
2023-04-26T12:54:13.037Z,29.89
2023-04-26T12:55:13.030Z,29.91
2023-04-26T12:56:12.964Z,29.91
2023-04-26T12:57:12.976Z,29.89
2023-04-26T12:58:13.268Z,29.93
2023-04-26T12:59:13.001Z,29.92
2023-04-26T13:00:12.988Z,29.88
2023-04-26T13:01:13.069Z,29.91
2023-04-26T13:02:13.032Z,29.89
2023-04-26T13:03:13.089Z,29.91
2023-04-26T13:04:13.101Z,29.89
2023-04-26T13:05:12.940Z,29.89
2023-04-26T13:06:13.006Z,29.91
2023-04-26T13:07:13.007Z,29.87
2023-04-26T13:08:13.145Z,29.88
2023-04-26T13:09:12.906Z,29.91
2023-04-26T13:10:13.257Z,29.85
2023-04-26T13:11:12.963Z,29.88
2023-04-26T13:12:12.864Z,29.89
2023-04-26T13:13:12.895Z,29.88
2023-04-26T13:14:12.902Z,29.87
2023-04-26T13:15:12.866Z,29.87
2023-04-26T13:16:13.311Z,29.87
2023-04-26T13:17:12.852Z,29.88
2023-04-26T13:18:12.959Z,29.87
2023-04-26T13:19:12.822Z,29.87
2023-04-26T13:20:12.833Z,29.87
2023-04-26T13:21:12.794Z,29.85
2023-04-26T13:22:13.043Z,29.87
2023-04-26T13:23:12.856Z,29.87
2023-04-26T13:24:12.870Z,29.87
2023-04-26T13:25:12.819Z,29.89
2023-04-26T13:26:12.762Z,29.84